Time;durP1;ratioP1;P1;durP2;ratioP2;P2;SDS_P1;SDS_P2;PMS_P1;PMS_P2;Temp;Humidity;BMP_temperature;BMP_pressure;BME280_temperature;BME280_humidity;BME280_pressure;Samples;Min_cycle;Max_cycle;Signal;HPM_P1;HPM_P2
2022/09/23 00:00:44;;;;;;;15.13;2.92;;;;;;;;;;5013950;28;20489;-65
2022/09/23 00:03:11;;;;;;;12.52;2.40;;;;;;;;;;5014188;28;20022;-65
2022/09/23 00:05:38;;;;;;;20.42;4.40;;;;;;;;;;5013361;28;20057;-65
2022/09/23 00:08:10;;;;;;;15.45;2.85;;;;;;;;;;5013070;28;20028;-66
2022/09/23 00:10:38;;;;;;;17.40;3.13;;;;;;;;;;5014641;28;20509;-65
2022/09/23 00:13:05;;;;;;;13.85;3.28;;;;;;;;;;5014225;28;20022;-65
2022/09/23 00:15:37;;;;;;;16.60;4.13;;;;;;;;;;5014440;28;20486;-65
2022/09/23 00:18:06;;;;;;;18.23;3.15;;;;;;;;;;5014564;28;20026;-65
2022/09/23 00:20:35;;;;;;;12.45;2.53;;;;;;;;;;5014298;28;20030;-65
2022/09/23 00:23:02;;;;;;;16.95;3.03;;;;;;;;;;5014230;28;20437;-64
2022/09/23 00:25:29;;;;;;;13.43;3.08;;;;;;;;;;5014097;28;20101;-65
2022/09/23 00:27:57;;;;;;;14.63;3.50;;;;;;;;;;5014282;28;20478;-65
2022/09/23 00:30:25;;;;;;;16.52;3.03;;;;;;;;;;5014469;28;20026;-65
2022/09/23 00:32:52;;;;;;;18.65;3.60;;;;;;;;;;5014009;28;20101;-65
2022/09/23 00:35:19;;;;;;;17.25;3.30;;;;;;;;;;5013882;28;20101;-64
2022/09/23 00:37:46;;;;;;;17.63;3.88;;;;;;;;;;5014071;28;20085;-64
2022/09/23 00:40:13;;;;;;;17.58;2.92;;;;;;;;;;5014078;28;20045;-65
2022/09/23 00:42:47;;;;;;;19.17;4.05;;;;;;;;;;5013842;28;20018;-65
2022/09/23 00:45:15;;;;;;;16.90;3.13;;;;;;;;;;5014331;28;20018;-65
2022/09/23 00:47:47;;;;;;;15.85;2.95;;;;;;;;;;5012559;28;20026;-65
2022/09/23 00:50:14;;;;;;;21.38;3.42;;;;;;;;;;5013978;28;20505;-64
2022/09/23 00:52:41;;;;;;;21.38;3.30;;;;;;;;;;5013813;28;20029;-66
2022/09/23 00:55:15;;;;;;;25.73;3.70;;;;;;;;;;5013696;28;20033;-67
2022/09/23 00:57:43;;;;;;;18.63;3.00;;;;;;;;;;5013708;28;20545;-66
2022/09/23 01:00:11;;;;;;;18.85;3.33;;;;;;;;;;5013514;28;20026;-66
2022/09/23 01:02:38;;;;;;;19.05;3.42;;;;;;;;;;5013601;28;20026;-66
2022/09/23 01:05:06;;;;;;;16.15;3.60;;;;;;;;;;5013422;28;20109;-67
2022/09/23 01:07:34;;;;;;;23.27;4.35;;;;;;;;;;5013632;28;20425;-65
2022/09/23 01:10:01;;;;;;;18.58;3.25;;;;;;;;;;5013814;28;20501;-67
2022/09/23 01:12:47;;;;;;;20.80;3.80;;;;;;;;;;5012236;28;20029;-68
2022/09/23 01:15:32;;;;;;;21.75;3.58;;;;;;;;;;5013521;28;20024;-67
2022/09/23 01:18:05;;;;;;;23.35;3.95;;;;;;;;;;5013531;28;20018;-66
2022/09/23 01:20:38;;;;;;;21.60;3.40;;;;;;;;;;5013378;28;20022;-66
2022/09/23 01:23:24;;;;;;;17.98;2.85;;;;;;;;;;5013345;28;20045;-66
2022/09/23 01:25:58;;;;;;;19.17;3.85;;;;;;;;;;5012150;28;20088;-67
2022/09/23 01:28:32;;;;;;;22.90;4.15;;;;;;;;;;5013302;28;20076;-66
2022/09/23 01:31:05;;;;;;;18.08;3.40;;;;;;;;;;5013365;28;20541;-66
2022/09/23 01:33:38;;;;;;;24.23;3.50;;;;;;;;;;5012012;28;20026;-67
2022/09/23 01:36:05;;;;;;;15.25;2.97;;;;;;;;;;5013514;28;20056;-66
2022/09/23 01:38:36;;;;;;;14.90;3.35;;;;;;;;;;5013135;28;20433;-66
2022/09/23 01:41:03;;;;;;;11.65;2.25;;;;;;;;;;5011931;28;20033;-66
2022/09/23 01:43:34;;;;;;;11.60;1.90;;;;;;;;;;5013294;28;20489;-66
2022/09/23 01:46:04;;;;;;;13.18;2.25;;;;;;;;;;5012578;28;20026;-66
2022/09/23 01:48:31;;;;;;;;;;;;;;;;;;5013773;28;20400;-66
2022/09/23 01:51:02;;;;;;;12.25;2.47;;;;;;;;;;5013127;28;20276;-66
2022/09/23 01:53:48;;;;;;;11.82;2.17;;;;;;;;;;5011892;28;20498;-66
2022/09/23 01:56:19;;;;;;;9.93;2.03;;;;;;;;;;5013645;28;20018;-66
2022/09/23 01:58:50;;;;;;;9.20;1.75;;;;;;;;;;5013127;28;20490;-66
2022/09/23 02:01:16;;;;;;;;;;;;;;;;;;5012065;28;20030;-66
2022/09/23 02:03:46;;;;;;;11.48;2.40;;;;;;;;;;5013199;28;19909;-67
2022/09/23 02:06:20;;;;;;;10.85;2.60;;;;;;;;;;5012901;28;20049;-67
2022/09/23 02:09:00;;;;;;;12.77;2.35;;;;;;;;;;5013351;28;20026;-67
2022/09/23 02:11:27;;;;;;;15.88;3.13;;;;;;;;;;5012947;28;20057;-67
2022/09/23 02:13:57;;;;;;;11.45;2.35;;;;;;;;;;5012911;28;20022;-67
2022/09/23 02:16:27;;;;;;;15.43;2.67;;;;;;;;;;5011636;28;20026;-67
2022/09/23 02:19:07;;;;;;;16.50;2.78;;;;;;;;;;5013132;28;20022;-67
2022/09/23 02:21:35;;;;;;;14.07;2.65;;;;;;;;;;5012999;28;20130;-67
2022/09/23 02:24:23;;;;;;;15.20;2.80;;;;;;;;;;5012812;28;20539;-67
2022/09/23 02:26:52;;;;;;;13.65;2.63;;;;;;;;;;5012495;28;20080;-67
2022/09/23 02:29:22;;;;;;;17.92;3.00;;;;;;;;;;5012766;28;20072;-67
2022/09/23 02:31:49;;;;;;;18.47;2.83;;;;;;;;;;5012954;28;20025;-67
2022/09/23 02:34:30;;;;;;;16.90;2.85;;;;;;;;;;5012721;28;20028;-67
2022/09/23 02:37:05;;;;;;;16.50;3.25;;;;;;;;;;5012640;28;20026;-66
2022/09/23 02:39:38;;;;;;;13.00;2.75;;;;;;;;;;5012709;28;20058;-66
2022/09/23 02:42:08;;;;;;;11.77;2.58;;;;;;;;;;5010640;28;20032;-67
2022/09/23 02:44:35;;;;;;;;;;;;;;;;;;5011811;28;20371;-67
2022/09/23 02:47:02;;;;;;;18.08;3.08;;;;;;;;;;5011254;28;20330;-67
2022/09/23 02:49:31;;;;;;;16.40;2.65;;;;;;;;;;5012598;28;20029;-66
2022/09/23 02:52:03;;;;;;;13.38;2.67;;;;;;;;;;5012518;28;20399;-67
2022/09/23 02:54:34;;;;;;;15.68;3.20;;;;;;;;;;5012674;28;20018;-66
2022/09/23 02:57:03;;;;;;;14.52;3.28;;;;;;;;;;5013518;28;20026;-67
2022/09/23 02:59:30;;;;;;;14.27;3.30;;;;;;;;;;5016202;28;20371;-66
2022/09/23 03:02:16;;;;;;;15.07;2.88;;;;;;;;;;5015810;28;20029;-66
2022/09/23 03:05:05;;;;;;;13.63;3.08;;;;;;;;;;5016176;28;20029;-66
2022/09/23 03:07:48;;;;;;;15.10;2.72;;;;;;;;;;5015042;28;20052;-66
2022/09/23 03:10:20;;;;;;;15.45;3.10;;;;;;;;;;5013963;28;20529;-66
2022/09/23 03:12:51;;;;;;;14.98;2.72;;;;;;;;;;5014168;28;20021;-66
2022/09/23 03:15:28;;;;;;;14.45;2.15;;;;;;;;;;5015530;28;20050;-66
2022/09/23 03:18:02;;;;;;;14.20;2.60;;;;;;;;;;5015801;28;20113;-66
2022/09/23 03:20:33;;;;;;;12.75;2.65;;;;;;;;;;5015584;28;20030;-66
2022/09/23 03:23:03;;;;;;;14.38;3.25;;;;;;;;;;5014299;28;20084;-66
2022/09/23 03:25:32;;;;;;;14.60;2.83;;;;;;;;;;5015626;28;20072;-66
2022/09/23 03:28:00;;;;;;;15.80;2.55;;;;;;;;;;5015494;28;20026;-67
2022/09/23 03:30:28;;;;;;;16.13;3.25;;;;;;;;;;5015503;28;20034;-67
2022/09/23 03:32:59;;;;;;;13.50;3.03;;;;;;;;;;5015304;28;20478;-66
2022/09/23 03:35:27;;;;;;;15.82;3.00;;;;;;;;;;5015302;28;20030;-68
2022/09/23 03:38:01;;;;;;;13.15;2.40;;;;;;;;;;5015201;28;20434;-67
2022/09/23 03:40:49;;;;;;;12.63;2.42;;;;;;;;;;5015311;28;20045;-67
2022/09/23 03:43:17;;;;;;;13.80;2.80;;;;;;;;;;5015162;28;20363;-67
2022/09/23 03:45:46;;;;;;;10.95;2.10;;;;;;;;;;5015118;28;20097;-66
2022/09/23 03:48:16;;;;;;;12.05;2.42;;;;;;;;;;5015108;28;20105;-66
2022/09/23 03:50:43;;;;;;;14.70;2.83;;;;;;;;;;5015053;28;20088;-66
2022/09/23 03:53:13;;;;;;;11.43;2.15;;;;;;;;;;5012620;28;20037;-66
2022/09/23 03:55:40;;;;;;;13.75;2.58;;;;;;;;;;5013931;28;20101;-66
2022/09/23 03:58:07;;;;;;;17.17;2.90;;;;;;;;;;5012263;28;20117;-67
2022/09/23 04:00:34;;;;;;;12.50;2.35;;;;;;;;;;5014901;28;20034;-67
2022/09/23 04:03:02;;;;;;;11.00;1.70;;;;;;;;;;5014764;28;20045;-67
2022/09/23 04:05:29;;;;;;;11.30;1.88;;;;;;;;;;5014582;28;20049;-66
2022/09/23 04:07:56;;;;;;;12.23;2.30;;;;;;;;;;5014883;28;20367;-67
2022/09/23 04:10:23;;;;;;;12.52;2.30;;;;;;;;;;5014251;28;20050;-67
2022/09/23 04:12:50;;;;;;;11.40;2.95;;;;;;;;;;5014536;28;20104;-67
2022/09/23 04:15:17;;;;;;;17.38;3.53;;;;;;;;;;5014589;28;20057;-67
2022/09/23 04:17:44;;;;;;;12.77;3.30;;;;;;;;;;5014613;28;20386;-68
2022/09/23 04:20:12;;;;;;;13.30;2.75;;;;;;;;;;5012665;28;20026;-67
2022/09/23 04:22:40;;;;;;;15.25;3.10;;;;;;;;;;5014679;28;20438;-68
2022/09/23 04:25:10;;;;;;;15.27;2.95;;;;;;;;;;5014362;28;20046;-67
2022/09/23 04:27:37;;;;;;;11.52;2.10;;;;;;;;;;5014488;28;20021;-67
2022/09/23 04:30:05;;;;;;;13.38;2.88;;;;;;;;;;5014362;28;20088;-67
2022/09/23 04:32:32;;;;;;;11.27;2.55;;;;;;;;;;5014501;28;20086;-68
2022/09/23 04:35:00;;;;;;;11.20;2.22;;;;;;;;;;5014106;28;20101;-68
2022/09/23 04:37:27;;;;;;;13.38;2.85;;;;;;;;;;5014160;28;20447;-68
2022/09/23 04:39:55;;;;;;;9.25;2.10;;;;;;;;;;5013971;28;20022;-68
2022/09/23 04:42:22;;;;;;;9.57;2.08;;;;;;;;;;5014324;28;20018;-69
2022/09/23 04:44:49;;;;;;;12.23;2.20;;;;;;;;;;5013940;28;20030;-68
2022/09/23 04:47:18;;;;;;;12.20;2.67;;;;;;;;;;5012621;28;20025;-67
2022/09/23 04:49:45;;;;;;;12.18;2.40;;;;;;;;;;5012463;28;20028;-67
2022/09/23 04:52:12;;;;;;;11.63;2.50;;;;;;;;;;5013911;28;20025;-67
2022/09/23 04:54:40;;;;;;;14.38;3.05;;;;;;;;;;5012338;28;20028;-67
2022/09/23 04:57:09;;;;;;;13.05;2.60;;;;;;;;;;5013898;28;20441;-68
2022/09/23 04:59:37;;;;;;;14.57;2.63;;;;;;;;;;5014011;28;20037;-67
2022/09/23 05:02:04;;;;;;;11.85;2.50;;;;;;;;;;5013587;28;20026;-68
2022/09/23 05:04:31;;;;;;;14.52;2.50;;;;;;;;;;5013768;28;20394;-67
2022/09/23 05:06:58;;;;;;;14.70;2.28;;;;;;;;;;5013564;28;20049;-67
2022/09/23 05:09:25;;;;;;;10.45;2.42;;;;;;;;;;5013711;28;20422;-67
2022/09/23 05:11:52;;;;;;;17.95;3.38;;;;;;;;;;5013502;28;20030;-68
2022/09/23 05:14:20;;;;;;;11.68;2.72;;;;;;;;;;5013429;28;20060;-67
2022/09/23 05:16:47;;;;;;;10.88;2.47;;;;;;;;;;5013447;28;20033;-67
2022/09/23 05:19:14;;;;;;;17.48;2.97;;;;;;;;;;5013295;28;20025;-67
2022/09/23 05:21:41;;;;;;;15.32;2.47;;;;;;;;;;5012381;28;20026;-68
2022/09/23 05:24:09;;;;;;;16.67;2.55;;;;;;;;;;5013386;28;20021;-67
2022/09/23 05:26:37;;;;;;;14.15;2.85;;;;;;;;;;5013270;28;20022;-68
2022/09/23 05:29:04;;;;;;;14.43;2.60;;;;;;;;;;5013456;28;20022;-67
2022/09/23 05:31:31;;;;;;;13.50;2.28;;;;;;;;;;5013381;28;20040;-67
2022/09/23 05:33:59;;;;;;;15.45;3.15;;;;;;;;;;5012087;28;20027;-67
2022/09/23 05:36:27;;;;;;;15.68;2.92;;;;;;;;;;5013404;28;20051;-68
2022/09/23 05:38:55;;;;;;;12.10;2.85;;;;;;;;;;5013133;28;20026;-68
2022/09/23 05:41:23;;;;;;;13.93;2.58;;;;;;;;;;5013064;28;20394;-67
2022/09/23 05:43:51;;;;;;;17.63;2.60;;;;;;;;;;5013279;28;20029;-68
2022/09/23 05:46:19;;;;;;;16.05;2.75;;;;;;;;;;5013403;28;20022;-67
2022/09/23 05:48:46;;;;;;;11.73;2.13;;;;;;;;;;5011805;28;20021;-68
2022/09/23 05:51:16;;;;;;;16.40;2.78;;;;;;;;;;5013032;28;20049;-67
2022/09/23 05:53:44;;;;;;;15.77;3.45;;;;;;;;;;5013206;28;20540;-67
2022/09/23 05:56:12;;;;;;;14.07;2.70;;;;;;;;;;5012981;28;20026;-67
2022/09/23 05:58:39;;;;;;;17.20;2.55;;;;;;;;;;5012967;28;20049;-67
2022/09/23 06:01:16;;;;;;;16.15;3.03;;;;;;;;;;5011424;28;20026;-67
2022/09/23 06:03:47;;;;;;;16.55;2.72;;;;;;;;;;5012943;28;20022;-67
2022/09/23 06:06:16;;;;;;;18.23;3.05;;;;;;;;;;5011268;28;20041;-67
2022/09/23 06:08:44;;;;;;;15.40;2.60;;;;;;;;;;5012877;28;20025;-67
2022/09/23 06:11:12;;;;;;;14.52;3.00;;;;;;;;;;5013099;28;20026;-67
2022/09/23 06:13:40;;;;;;;19.77;2.83;;;;;;;;;;5013131;28;20033;-67
2022/09/23 06:16:11;;;;;;;16.25;2.38;;;;;;;;;;5012901;28;20022;-68
2022/09/23 06:18:39;;;;;;;14.82;2.92;;;;;;;;;;5012688;28;20049;-67
2022/09/23 06:21:06;;;;;;;18.48;2.83;;;;;;;;;;5012887;28;20416;-67
2022/09/23 06:23:34;;;;;;;12.30;2.72;;;;;;;;;;5012774;28;20088;-68
2022/09/23 06:26:01;;;;;;;16.55;2.88;;;;;;;;;;5012771;28;20045;-67
2022/09/23 06:28:31;;;;;;;22.13;3.45;;;;;;;;;;5012762;28;20534;-67
2022/09/23 06:31:16;;;;;;;17.50;3.22;;;;;;;;;;5012816;28;20018;-66
2022/09/23 06:33:44;;;;;;;15.43;3.22;;;;;;;;;;5016571;28;20390;-67
2022/09/23 06:36:13;;;;;;;12.95;2.78;;;;;;;;;;5016412;28;20026;-67
2022/09/23 06:38:43;;;;;;;17.98;4.00;;;;;;;;;;5014948;28;20037;-67
2022/09/23 06:41:10;;;;;;;14.55;2.80;;;;;;;;;;5015027;28;20025;-66
2022/09/23 06:43:38;;;;;;;18.52;3.17;;;;;;;;;;5014931;28;20026;-66
2022/09/23 06:46:06;;;;;;;14.23;2.72;;;;;;;;;;5016499;28;20022;-68
2022/09/23 06:48:36;;;;;;;20.50;2.80;;;;;;;;;;5016094;28;20021;-67
2022/09/23 06:51:06;;;;;;;16.42;3.28;;;;;;;;;;5015008;28;20022;-67
2022/09/23 06:53:33;;;;;;;16.08;4.30;;;;;;;;;;5015833;28;20029;-67
2022/09/23 06:56:01;;;;;;;22.40;3.80;;;;;;;;;;5016131;28;20100;-68
2022/09/23 06:58:28;;;;;;;17.55;2.95;;;;;;;;;;5015952;28;20018;-67
2022/09/23 07:01:01;;;;;;;16.98;3.40;;;;;;;;;;5015921;28;20030;-66
2022/09/23 07:03:29;;;;;;;13.65;2.92;;;;;;;;;;5016061;28;20029;-66
2022/09/23 07:05:56;;;;;;;20.27;3.70;;;;;;;;;;5015784;28;20046;-65
2022/09/23 07:08:26;;;;;;;16.55;2.97;;;;;;;;;;5015695;28;20046;-65
2022/09/23 07:10:56;;;;;;;17.73;3.17;;;;;;;;;;5015889;28;20387;-66
2022/09/23 07:13:24;;;;;;;16.85;3.20;;;;;;;;;;5015694;28;20030;-65
2022/09/23 07:15:57;;;;;;;18.23;2.70;;;;;;;;;;5015945;28;20046;-65
2022/09/23 07:18:25;;;;;;;17.92;3.15;;;;;;;;;;5015557;28;20029;-65
2022/09/23 07:20:52;;;;;;;13.93;3.00;;;;;;;;;;5015501;28;20367;-66
2022/09/23 07:23:19;;;;;;;16.08;3.30;;;;;;;;;;5015671;28;20434;-66
2022/09/23 07:25:48;;;;;;;22.33;3.17;;;;;;;;;;5015525;28;20014;-66
2022/09/23 07:28:15;;;;;;;17.42;2.85;;;;;;;;;;5015469;28;20026;-66
2022/09/23 07:30:44;;;;;;;15.30;3.38;;;;;;;;;;5015370;28;20416;-65
2022/09/23 07:33:11;;;;;;;15.27;2.67;;;;;;;;;;5015418;28;20021;-65
2022/09/23 07:35:42;;;;;;;18.50;3.25;;;;;;;;;;5015614;28;20022;-65
2022/09/23 07:38:10;;;;;;;15.57;3.25;;;;;;;;;;5015519;28;20425;-65
2022/09/23 07:40:38;;;;;;;20.38;4.28;;;;;;;;;;5015217;28;20080;-65
2022/09/23 07:43:07;;;;;;;21.17;3.40;;;;;;;;;;5014585;28;20045;-64
2022/09/23 07:45:34;;;;;;;15.27;3.30;;;;;;;;;;5014950;28;20105;-64
2022/09/23 07:48:02;;;;;;;19.42;2.83;;;;;;;;;;5015144;28;20391;-64
2022/09/23 07:50:30;;;;;;;16.67;2.70;;;;;;;;;;5015248;28;20049;-65
2022/09/23 07:52:57;;;;;;;21.08;3.85;;;;;;;;;;5015211;28;20041;-65
2022/09/23 07:55:24;;;;;;;13.32;2.78;;;;;;;;;;5014777;28;20025;-66
2022/09/23 07:57:51;;;;;;;16.98;3.22;;;;;;;;;;5014841;28;20331;-65
2022/09/23 08:00:18;;;;;;;20.40;3.05;;;;;;;;;;5013996;28;20021;-66
2022/09/23 08:02:45;;;;;;;14.68;2.67;;;;;;;;;;5014700;28;20065;-65
2022/09/23 08:05:12;;;;;;;19.67;3.40;;;;;;;;;;5014437;28;20037;-66
2022/09/23 08:07:39;;;;;;;18.70;3.88;;;;;;;;;;5014885;28;20038;-66
2022/09/23 08:10:07;;;;;;;22.80;4.40;;;;;;;;;;5014621;28;20024;-65
2022/09/23 08:12:34;;;;;;;14.77;2.78;;;;;;;;;;5014707;28;20033;-66
2022/09/23 08:15:01;;;;;;;22.25;3.63;;;;;;;;;;5014496;28;20089;-68
2022/09/23 08:17:29;;;;;;;22.10;3.08;;;;;;;;;;5014217;28;20406;-66
2022/09/23 08:19:56;;;;;;;16.23;3.22;;;;;;;;;;5014602;28;20053;-65
2022/09/23 08:22:23;;;;;;;16.23;3.15;;;;;;;;;;5014468;28;20424;-66
2022/09/23 08:24:50;;;;;;;19.65;2.97;;;;;;;;;;5013223;28;20030;-65
2022/09/23 08:27:17;;;;;;;18.42;3.97;;;;;;;;;;5014759;28;20382;-65
2022/09/23 08:29:44;;;;;;;16.45;2.90;;;;;;;;;;5013172;28;20022;-65
2022/09/23 08:32:11;;;;;;;18.38;3.35;;;;;;;;;;5014438;28;20025;-66
2022/09/23 08:34:38;;;;;;;21.42;4.13;;;;;;;;;;5013669;28;20026;-67
2022/09/23 08:37:10;;;;;;;13.13;2.97;;;;;;;;;;5013373;28;20100;-67
2022/09/23 08:39:37;;;;;;;21.17;3.75;;;;;;;;;;5012716;28;20029;-67
2022/09/23 08:42:04;;;;;;;14.93;3.63;;;;;;;;;;5011535;28;20425;-67
2022/09/23 08:44:37;;;;;;;18.70;3.38;;;;;;;;;;5011311;28;20080;-67
2022/09/23 08:47:22;;;;;;;17.15;3.00;;;;;;;;;;5013511;28;20067;-66
2022/09/23 08:50:07;;;;;;;14.77;2.53;;;;;;;;;;5012508;28;20026;-67
2022/09/23 08:52:53;;;;;;;13.52;3.03;;;;;;;;;;5013000;28;20475;-67
2022/09/23 08:55:27;;;;;;;14.65;2.60;;;;;;;;;;5013658;28;20018;-68
2022/09/23 08:57:57;;;;;;;13.80;2.45;;;;;;;;;;5012722;28;20484;-67
2022/09/23 09:00:29;;;;;;;7.70;2.05;;;;;;;;;;5013844;28;20018;-67
2022/09/23 09:02:56;;;;;;;14.57;2.90;;;;;;;;;;5014002;28;20037;-67
2022/09/23 09:05:26;;;;;;;14.73;2.97;;;;;;;;;;5013706;28;20026;-67
2022/09/23 09:07:54;;;;;;;16.35;2.88;;;;;;;;;;5014112;28;20300;-67
2022/09/23 09:10:30;;;;;;;17.70;3.63;;;;;;;;;;5013889;28;20033;-67
2022/09/23 09:13:08;;;;;;;12.70;2.65;;;;;;;;;;5013765;28;20014;-67
2022/09/23 09:15:42;;;;;;;14.32;2.80;;;;;;;;;;5013797;28;20018;-67
2022/09/23 09:18:22;;;;;;;18.92;4.97;;;;;;;;;;5013710;28;20087;-67
2022/09/23 09:20:59;;;;;;;15.00;2.97;;;;;;;;;;5013692;28;20030;-66
2022/09/23 09:23:33;;;;;;;15.32;2.55;;;;;;;;;;5012202;28;20140;-67
2022/09/23 09:26:04;;;;;;;22.42;3.05;;;;;;;;;;5013806;28;20050;-66
2022/09/23 09:28:32;;;;;;;;;;;;;;;;;;5012552;28;20482;-66
2022/09/23 09:31:10;;;;;;;14.35;2.83;;;;;;;;;;5013658;28;19993;-66
2022/09/23 09:33:44;;;;;;;14.82;2.92;;;;;;;;;;5013659;28;20548;-66
2022/09/23 09:36:20;;;;;;;16.70;3.28;;;;;;;;;;5013615;28;20075;-66
2022/09/23 09:38:47;;;;;;;20.35;3.70;;;;;;;;;;5013402;28;20151;-66
2022/09/23 09:41:20;;;;;;;22.95;3.20;;;;;;;;;;5013163;28;20393;-65
2022/09/23 09:43:51;;;;;;;21.70;3.33;;;;;;;;;;5013213;28;20018;-67
2022/09/23 09:46:53;;;;;;;24.77;3.80;;;;;;;;;;5013438;28;20021;-67
2022/09/23 09:49:21;;;;;;;18.38;3.40;;;;;;;;;;4991568;28;20039;-67
2022/09/23 09:52:02;;;;;;;19.73;3.65;;;;;;;;;;5009227;28;20033;-66
2022/09/23 09:54:30;;;;;;;23.55;3.53;;;;;;;;;;5013447;28;20034;-66
2022/09/23 09:56:57;;;;;;;19.92;3.20;;;;;;;;;;5013446;28;20045;-67
2022/09/23 09:59:28;;;;;;;24.05;3.67;;;;;;;;;;5012904;28;20038;-67
2022/09/23 10:02:15;;;;;;;24.02;3.30;;;;;;;;;;5012904;28;20144;-66
2022/09/23 10:04:43;;;;;;;19.40;3.80;;;;;;;;;;5009189;28;20034;-66
2022/09/23 10:07:16;;;;;;;19.13;3.78;;;;;;;;;;5014248;28;20058;-66
2022/09/23 10:09:50;;;;;;;23.15;3.45;;;;;;;;;;5017428;28;20022;-66
2022/09/23 10:12:21;;;;;;;20.60;3.47;;;;;;;;;;5017075;28;20032;-67
2022/09/23 10:14:50;;;;;;;;;;;;;;;;;;5017480;28;20426;-66
2022/09/23 10:17:23;;;;;;;24.30;3.80;;;;;;;;;;5016943;28;19912;-66
2022/09/23 10:19:57;;;;;;;21.58;4.07;;;;;;;;;;5017075;28;20025;-67
2022/09/23 10:22:28;;;;;;;22.52;4.82;;;;;;;;;;5017097;28;20487;-66
2022/09/23 10:24:59;;;;;;;17.67;4.85;;;;;;;;;;5015580;28;20029;-66
2022/09/23 10:27:26;;;;;;;;;;;;;;;;;;5015890;28;20022;-67
2022/09/23 10:29:55;;;;;;;18.17;3.38;;;;;;;;;;5016882;28;19905;-66
2022/09/23 10:32:27;;;;;;;16.27;3.30;;;;;;;;;;5015439;28;20121;-66
2022/09/23 10:35:01;;;;;;;18.10;3.47;;;;;;;;;;5015318;28;20076;-67
2022/09/23 10:37:33;;;;;;;20.05;3.40;;;;;;;;;;5017150;28;20467;-66
2022/09/23 10:48:34;;;;;;;24.05;4.47;;;;;;;;;;5016749;28;20079;-66
2022/09/23 10:51:05;;;;;;;20.80;3.97;;;;;;;;;;5016474;28;20363;-66
2022/09/23 10:53:51;;;;;;;20.20;3.95;;;;;;;;;;5016540;28;20028;-66
2022/09/23 10:56:27;;;;;;;24.20;4.43;;;;;;;;;;5016574;28;20022;-65
2022/09/23 10:59:03;;;;;;;23.42;3.72;;;;;;;;;;5016548;28;20390;-66
2022/09/23 11:01:36;;;;;;;21.45;3.75;;;;;;;;;;5016060;28;20041;-67
2022/09/23 11:04:22;;;;;;;20.55;4.20;;;;;;;;;;5016137;28;20018;-67
2022/09/23 11:06:55;;;;;;;20.63;3.88;;;;;;;;;;5015942;28;20104;-67
2022/09/23 11:09:40;;;;;;;20.85;3.85;;;;;;;;;;5016197;28;20018;-67
2022/09/23 11:12:15;;;;;;;22.63;3.45;;;;;;;;;;5016366;28;20033;-67
2022/09/23 11:15:09;;;;;;;22.27;4.07;;;;;;;;;;5014603;28;20115;-68
2022/09/23 11:18:06;;;;;;;21.45;3.55;;;;;;;;;;5016077;28;20026;-66
2022/09/23 11:20:39;;;;;;;25.27;3.97;;;;;;;;;;5015988;28;20026;-66
2022/09/23 11:23:06;;;;;;;22.70;4.07;;;;;;;;;;5015724;28;20028;-67
2022/09/23 11:25:39;;;;;;;20.65;4.15;;;;;;;;;;5015789;28;20018;-67
2022/09/23 11:28:06;;;;;;;22.50;4.63;;;;;;;;;;5014329;28;20474;-67
2022/09/23 11:30:42;;;;;;;22.45;4.45;;;;;;;;;;5015829;28;20025;-66
2022/09/23 11:33:16;;;;;;;18.55;3.70;;;;;;;;;;5015918;28;20034;-66
2022/09/23 11:35:48;;;;;;;20.13;4.68;;;;;;;;;;5015505;28;20390;-66
2022/09/23 11:38:24;;;;;;;19.15;3.97;;;;;;;;;;5015465;28;20022;-66
2022/09/23 11:41:20;;;;;;;21.67;4.22;;;;;;;;;;5015437;28;20026;-66
2022/09/23 11:43:53;;;;;;;22.42;4.68;;;;;;;;;;5010712;28;20037;-66
2022/09/23 11:46:27;;;;;;;20.23;4.22;;;;;;;;;;5015242;28;20390;-67
2022/09/23 11:48:59;;;;;;;19.65;4.50;;;;;;;;;;5015389;28;20068;-66
2022/09/23 11:51:37;;;;;;;23.00;4.82;;;;;;;;;;5015305;28;20022;-66
2022/09/23 11:54:19;;;;;;;22.40;4.20;;;;;;;;;;5015263;28;20429;-65
2022/09/23 11:56:48;;;;;;;19.98;4.35;;;;;;;;;;5015293;28;20478;-64
2022/09/23 11:59:15;;;;;;;18.17;4.30;;;;;;;;;;5015087;28;20030;-66
2022/09/23 12:01:48;;;;;;;22.55;4.72;;;;;;;;;;5015119;28;20025;-66
2022/09/23 12:04:22;;;;;;;21.25;5.03;;;;;;;;;;5015005;28;20084;-66
2022/09/23 12:06:57;;;;;;;25.95;4.82;;;;;;;;;;5013573;28;20128;-66
2022/09/23 12:09:28;;;;;;;20.25;4.30;;;;;;;;;;5014842;28;20445;-66
2022/09/23 12:12:21;;;;;;;28.65;4.70;;;;;;;;;;5015165;28;20025;-65
2022/09/23 12:14:57;;;;;;;28.48;5.18;;;;;;;;;;5011500;28;20034;-66
2022/09/23 12:17:27;;;;;;;26.58;5.38;;;;;;;;;;5014745;28;20038;-66
2022/09/23 12:20:01;;;;;;;26.40;5.25;;;;;;;;;;5014750;28;20029;-66
2022/09/23 12:22:44;;;;;;;26.70;5.25;;;;;;;;;;5014635;28;20026;-66
2022/09/23 12:25:28;;;;;;;26.80;5.57;;;;;;;;;;5014785;28;20025;-65
2022/09/23 12:27:56;;;;;;;31.60;5.93;;;;;;;;;;5014669;28;20026;-66
2022/09/23 12:30:25;;;;;;;21.60;4.90;;;;;;;;;;5014056;28;20105;-66
2022/09/23 12:32:53;;;;;;;26.25;5.22;;;;;;;;;;5014505;28;20037;-66
2022/09/23 12:35:22;;;;;;;31.15;5.35;;;;;;;;;;5014654;28;20014;-66
2022/09/23 12:37:50;;;;;;;30.17;5.63;;;;;;;;;;5014340;28;20029;-66
2022/09/23 12:40:20;;;;;;;30.08;6.22;;;;;;;;;;5014245;28;20022;-66
2022/09/23 12:42:47;;;;;;;;;;;;;;;;;;5014961;28;20018;-66
2022/09/23 12:45:31;;;;;;;26.48;5.93;;;;;;;;;;5012914;28;19995;-67
2022/09/23 12:48:03;;;;;;;26.45;5.63;;;;;;;;;;5014512;28;20065;-67
2022/09/23 12:50:49;;;;;;;19.42;6.80;;;;;;;;;;5012800;28;20053;-66
2022/09/23 12:53:32;;;;;;;27.60;6.80;;;;;;;;;;5014127;28;20022;-67
2022/09/23 12:55:59;;;;;;;23.48;7.45;;;;;;;;;;5012758;28;20033;-67
2022/09/23 12:58:56;;;;;;;27.00;8.75;;;;;;;;;;5014117;28;20049;-65
2022/09/23 13:01:25;;;;;;;24.83;8.18;;;;;;;;;;5014056;28;20018;-65
2022/09/23 13:06:41;;;;;;;23.05;10.30;;;;;;;;;;5013766;28;20053;-65
2022/09/23 13:09:28;;;;;;;19.80;9.93;;;;;;;;;;5013810;28;20501;-66
2022/09/23 13:11:58;;;;;;;27.45;12.35;;;;;;;;;;5012664;28;20030;-66
2022/09/23 13:14:27;;;;;;;23.50;11.23;;;;;;;;;;5013861;28;20072;-66
2022/09/23 13:16:57;;;;;;;27.35;11.20;;;;;;;;;;5013922;28;20025;-66
2022/09/23 13:19:27;;;;;;;24.45;11.63;;;;;;;;;;5013788;28;20026;-66
2022/09/23 13:21:54;;;;;;;25.33;11.23;;;;;;;;;;5013667;28;20482;-65
2022/09/23 13:24:27;;;;;;;27.17;11.30;;;;;;;;;;5012421;28;20033;-65
2022/09/23 13:27:04;;;;;;;21.77;10.30;;;;;;;;;;5012320;28;20445;-66
2022/09/23 13:29:34;;;;;;;26.08;11.07;;;;;;;;;;5013791;28;20068;-66
2022/09/23 13:32:02;;;;;;;25.77;11.93;;;;;;;;;;5013519;28;20026;-66
2022/09/23 13:34:37;;;;;;;27.00;11.50;;;;;;;;;;5013453;28;20172;-66
2022/09/23 13:37:33;;;;;;;29.30;11.30;;;;;;;;;;5013492;28;20156;-66
2022/09/23 13:40:08;;;;;;;24.77;12.45;;;;;;;;;;4994508;28;20034;-67
2022/09/23 13:42:39;;;;;;;24.83;12.25;;;;;;;;;;5011192;28;20440;-66
2022/09/23 13:45:06;;;;;;;26.25;11.23;;;;;;;;;;5013499;28;20065;-66
2022/09/23 13:47:35;;;;;;;22.85;11.98;;;;;;;;;;5013284;28;20022;-66
2022/09/23 13:50:02;;;;;;;28.98;12.52;;;;;;;;;;5013532;28;20445;-66
2022/09/23 13:52:31;;;;;;;25.40;12.32;;;;;;;;;;5013299;28;20032;-67
2022/09/23 13:54:58;;;;;;;25.00;13.48;;;;;;;;;;5013228;28;20022;-66
2022/09/23 13:57:31;;;;;;;24.35;13.00;;;;;;;;;;5013341;28;20022;-67
2022/09/23 14:00:16;;;;;;;22.98;11.52;;;;;;;;;;5013390;28;20497;-67
2022/09/23 14:02:44;;;;;;;22.67;12.32;;;;;;;;;;5013488;28;20065;-67
2022/09/23 14:05:12;;;;;;;24.52;11.77;;;;;;;;;;5012974;28;20018;-67
2022/09/23 14:07:39;;;;;;;22.90;11.75;;;;;;;;;;5013148;28;20038;-66
2022/09/23 14:10:07;;;;;;;21.02;11.95;;;;;;;;;;5013132;28;20085;-66
2022/09/23 14:12:38;;;;;;;23.65;11.48;;;;;;;;;;5013240;28;20509;-66
2022/09/23 14:15:06;;;;;;;24.58;11.90;;;;;;;;;;5013320;28;20033;-66
2022/09/23 14:17:34;;;;;;;23.65;11.38;;;;;;;;;;5011977;28;20076;-66
2022/09/23 14:20:01;;;;;;;29.45;12.02;;;;;;;;;;5013018;28;20065;-66
2022/09/23 14:22:29;;;;;;;22.00;10.27;;;;;;;;;;5012926;28;20029;-66
2022/09/23 14:24:57;;;;;;;23.90;11.02;;;;;;;;;;5013111;28;20018;-66
2022/09/23 14:27:24;;;;;;;24.25;10.43;;;;;;;;;;5011598;28;20026;-66
2022/09/23 14:29:52;;;;;;;23.02;10.50;;;;;;;;;;5012979;28;20025;-66
2022/09/23 14:32:24;;;;;;;22.80;10.98;;;;;;;;;;5012891;28;20026;-66
2022/09/23 14:35:03;;;;;;;20.02;9.68;;;;;;;;;;5012859;28;20083;-66
2022/09/23 14:40:24;;;;;;;20.05;10.15;;;;;;;;;;5013004;28;20121;-66
2022/09/23 14:43:06;;;;;;;24.17;11.10;;;;;;;;;;5013003;28;20018;-66
2022/09/23 14:45:38;;;;;;;20.00;9.60;;;;;;;;;;5012973;28;20029;-66
2022/09/23 14:48:08;;;;;;;19.63;10.38;;;;;;;;;;5012771;28;20063;-66
2022/09/23 14:50:38;;;;;;;24.48;10.10;;;;;;;;;;5012801;28;20022;-66
2022/09/23 14:53:25;;;;;;;19.70;10.13;;;;;;;;;;5012551;28;20030;-66
2022/09/23 14:55:56;;;;;;;25.13;11.25;;;;;;;;;;5012572;28;20386;-66
2022/09/23 14:58:22;;;;;;;;;;;;;;;;;;5015433;28;20034;-66
2022/09/23 15:00:56;;;;;;;18.17;9.88;;;;;;;;;;5016706;28;19913;-66
2022/09/23 15:03:23;;;;;;;21.30;9.38;;;;;;;;;;5016183;28;20014;-65
2022/09/23 15:05:56;;;;;;;21.13;9.57;;;;;;;;;;5016038;28;20111;-66
2022/09/23 15:08:26;;;;;;;21.45;10.13;;;;;;;;;;5016168;28;20014;-66